sensor_id;sensor_type;location;lat;lon;timestamp;temperature;humidity
33093;DHT22;19456;46.104;12.908;2024-03-02T00:00:45;10.50;99.90
33093;DHT22;19456;46.104;12.908;2024-03-02T00:03:19;10.40;99.90
33093;DHT22;19456;46.104;12.908;2024-03-02T00:05:48;10.40;99.90
33093;DHT22;19456;46.104;12.908;2024-03-02T00:08:17;10.30;99.90
33093;DHT22;19456;46.104;12.908;2024-03-02T00:10:47;10.30;99.90
33093;DHT22;19456;46.104;12.908;2024-03-02T00:13:13;10.20;99.90
33093;DHT22;19456;46.104;12.908;2024-03-02T00:15:46;10.20;99.90
33093;DHT22;19456;46.104;12.908;2024-03-02T00:18:12;10.20;99.90
33093;DHT22;19456;46.104;12.908;2024-03-02T00:20:38;10.20;99.90
33093;DHT22;19456;46.104;12.908;2024-03-02T00:23:04;10.20;99.90
33093;DHT22;19456;46.104;12.908;2024-03-02T00:25:49;10.20;99.90
33093;DHT22;19456;46.104;12.908;2024-03-02T00:33:09;10.20;99.90
33093;DHT22;19456;46.104;12.908;2024-03-02T00:35:35;10.20;99.90
33093;DHT22;19456;46.104;12.908;2024-03-02T00:38:07;10.20;99.90
33093;DHT22;19456;46.104;12.908;2024-03-02T00:40:32;10.20;99.90
33093;DHT22;19456;46.104;12.908;2024-03-02T00:42:58;10.10;99.90
33093;DHT22;19456;46.104;12.908;2024-03-02T00:45:24;10.10;99.90
33093;DHT22;19456;46.104;12.908;2024-03-02T00:47:50;10.10;99.90
33093;DHT22;19456;46.104;12.908;2024-03-02T00:50:16;10.10;99.90
33093;DHT22;19456;46.104;12.908;2024-03-02T00:52:42;10.00;99.90
33093;DHT22;19456;46.104;12.908;2024-03-02T00:55:07;10.00;99.90
33093;DHT22;19456;46.104;12.908;2024-03-02T00:57:33;10.00;99.90
33093;DHT22;19456;46.104;12.908;2024-03-02T01:00:00;9.90;99.90
33093;DHT22;19456;46.104;12.908;2024-03-02T01:02:25;9.90;99.90
33093;DHT22;19456;46.104;12.908;2024-03-02T01:04:52;9.90;99.90
33093;DHT22;19456;46.104;12.908;2024-03-02T01:07:17;9.90;99.90
33093;DHT22;19456;46.104;12.908;2024-03-02T01:09:43;10.00;99.90
33093;DHT22;19456;46.104;12.908;2024-03-02T01:12:11;10.10;99.90
33093;DHT22;19456;46.104;12.908;2024-03-02T01:14:39;10.10;99.90
33093;DHT22;19456;46.104;12.908;2024-03-02T01:17:05;10.10;99.90
33093;DHT22;19456;46.104;12.908;2024-03-02T01:19:33;10.10;99.90
33093;DHT22;19456;46.104;12.908;2024-03-02T01:22:01;10.10;99.90
33093;DHT22;19456;46.104;12.908;2024-03-02T01:24:27;10.20;99.90
33093;DHT22;19456;46.104;12.908;2024-03-02T01:26:53;10.20;99.90
33093;DHT22;19456;46.104;12.908;2024-03-02T01:29:24;10.00;99.90
33093;DHT22;19456;46.104;12.908;2024-03-02T01:31:52;10.00;99.90
33093;DHT22;19456;46.104;12.908;2024-03-02T01:34:29;9.90;99.90
33093;DHT22;19456;46.104;12.908;2024-03-02T01:36:58;9.80;99.90
33093;DHT22;19456;46.104;12.908;2024-03-02T01:39:29;9.80;99.90
33093;DHT22;19456;46.104;12.908;2024-03-02T01:41:58;9.80;99.90
33093;DHT22;19456;46.104;12.908;2024-03-02T01:44:24;9.70;99.90
33093;DHT22;19456;46.104;12.908;2024-03-02T01:46:52;9.60;99.90
33093;DHT22;19456;46.104;12.908;2024-03-02T01:49:20;9.50;99.90
33093;DHT22;19456;46.104;12.908;2024-03-02T01:51:46;9.50;99.90
33093;DHT22;19456;46.104;12.908;2024-03-02T01:54:11;9.50;99.90
33093;DHT22;19456;46.104;12.908;2024-03-02T01:56:40;9.50;99.90
33093;DHT22;19456;46.104;12.908;2024-03-02T01:59:09;9.60;99.90
33093;DHT22;19456;46.104;12.908;2024-03-02T02:01:35;9.40;99.90
33093;DHT22;19456;46.104;12.908;2024-03-02T02:04:03;9.40;99.90
33093;DHT22;19456;46.104;12.908;2024-03-02T02:06:32;9.50;99.90
33093;DHT22;19456;46.104;12.908;2024-03-02T02:09:03;9.40;99.90
33093;DHT22;19456;46.104;12.908;2024-03-02T02:11:36;9.40;99.90
33093;DHT22;19456;46.104;12.908;2024-03-02T02:14:02;9.50;99.90
33093;DHT22;19456;46.104;12.908;2024-03-02T02:16:30;9.50;99.90
33093;DHT22;19456;46.104;12.908;2024-03-02T02:18:59;9.60;99.90
33093;DHT22;19456;46.104;12.908;2024-03-02T02:21:24;9.50;99.90
33093;DHT22;19456;46.104;12.908;2024-03-02T02:23:56;9.50;99.90
33093;DHT22;19456;46.104;12.908;2024-03-02T02:26:27;9.60;99.90
33093;DHT22;19456;46.104;12.908;2024-03-02T02:28:52;9.50;99.90
33093;DHT22;19456;46.104;12.908;2024-03-02T02:31:20;9.40;99.90
33093;DHT22;19456;46.104;12.908;2024-03-02T02:33:51;9.40;99.90
33093;DHT22;19456;46.104;12.908;2024-03-02T02:36:19;9.50;99.90
33093;DHT22;19456;46.104;12.908;2024-03-02T02:38:57;9.50;99.90
33093;DHT22;19456;46.104;12.908;2024-03-02T02:41:29;9.50;99.90
33093;DHT22;19456;46.104;12.908;2024-03-02T02:43:55;9.60;99.90
33093;DHT22;19456;46.104;12.908;2024-03-02T02:46:24;9.60;99.90
33093;DHT22;19456;46.104;12.908;2024-03-02T02:48:49;9.70;99.90
33093;DHT22;19456;46.104;12.908;2024-03-02T02:51:18;9.80;99.90
33093;DHT22;19456;46.104;12.908;2024-03-02T02:53:47;9.80;99.90
33093;DHT22;19456;46.104;12.908;2024-03-02T02:56:14;9.80;99.90
33093;DHT22;19456;46.104;12.908;2024-03-02T02:58:40;9.90;99.90
33093;DHT22;19456;46.104;12.908;2024-03-02T03:01:07;9.90;99.90
33093;DHT22;19456;46.104;12.908;2024-03-02T03:03:33;9.80;99.90
33093;DHT22;19456;46.104;12.908;2024-03-02T03:05:58;9.90;99.90
33093;DHT22;19456;46.104;12.908;2024-03-02T03:08:24;9.90;99.90
33093;DHT22;19456;46.104;12.908;2024-03-02T03:10:49;9.90;99.90
33093;DHT22;19456;46.104;12.908;2024-03-02T03:13:15;10.00;99.90
33093;DHT22;19456;46.104;12.908;2024-03-02T03:15:41;10.00;99.90
33093;DHT22;19456;46.104;12.908;2024-03-02T03:18:06;10.00;99.90
33093;DHT22;19456;46.104;12.908;2024-03-02T03:20:36;10.10;99.90
33093;DHT22;19456;46.104;12.908;2024-03-02T03:23:01;10.10;99.90
33093;DHT22;19456;46.104;12.908;2024-03-02T03:25:27;10.20;99.90
33093;DHT22;19456;46.104;12.908;2024-03-02T03:27:52;10.20;99.90
33093;DHT22;19456;46.104;12.908;2024-03-02T03:30:18;10.20;99.90
33093;DHT22;19456;46.104;12.908;2024-03-02T03:32:44;10.20;99.90
33093;DHT22;19456;46.104;12.908;2024-03-02T03:35:09;10.20;99.90
33093;DHT22;19456;46.104;12.908;2024-03-02T03:37:35;10.20;99.90
33093;DHT22;19456;46.104;12.908;2024-03-02T03:40:01;10.20;99.90
33093;DHT22;19456;46.104;12.908;2024-03-02T03:42:28;10.10;99.90
33093;DHT22;19456;46.104;12.908;2024-03-02T03:44:53;10.10;99.90
33093;DHT22;19456;46.104;12.908;2024-03-02T03:47:19;10.00;99.90
33093;DHT22;19456;46.104;12.908;2024-03-02T03:49:45;9.90;99.90
33093;DHT22;19456;46.104;12.908;2024-03-02T03:52:11;9.90;99.90
33093;DHT22;19456;46.104;12.908;2024-03-02T03:54:36;10.00;99.90
33093;DHT22;19456;46.104;12.908;2024-03-02T03:57:03;10.00;99.90
33093;DHT22;19456;46.104;12.908;2024-03-02T03:59:29;10.00;99.90
33093;DHT22;19456;46.104;12.908;2024-03-02T04:01:55;9.90;99.90
33093;DHT22;19456;46.104;12.908;2024-03-02T04:04:20;9.80;99.90
33093;DHT22;19456;46.104;12.908;2024-03-02T04:06:46;9.80;99.90
33093;DHT22;19456;46.104;12.908;2024-03-02T04:09:12;9.80;99.90
33093;DHT22;19456;46.104;12.908;2024-03-02T04:11:37;9.80;99.90
33093;DHT22;19456;46.104;12.908;2024-03-02T04:14:03;9.80;99.90
33093;DHT22;19456;46.104;12.908;2024-03-02T04:16:29;9.80;99.90
33093;DHT22;19456;46.104;12.908;2024-03-02T04:18:54;9.90;99.90
33093;DHT22;19456;46.104;12.908;2024-03-02T04:21:20;9.90;99.90
33093;DHT22;19456;46.104;12.908;2024-03-02T04:23:45;9.90;99.90
33093;DHT22;19456;46.104;12.908;2024-03-02T04:26:11;9.90;99.90
33093;DHT22;19456;46.104;12.908;2024-03-02T04:28:37;9.80;99.90
33093;DHT22;19456;46.104;12.908;2024-03-02T04:31:02;9.80;99.90
33093;DHT22;19456;46.104;12.908;2024-03-02T04:33:28;9.80;99.90
33093;DHT22;19456;46.104;12.908;2024-03-02T04:35:53;9.80;99.90
33093;DHT22;19456;46.104;12.908;2024-03-02T04:38:19;9.80;99.90
33093;DHT22;19456;46.104;12.908;2024-03-02T04:40:44;9.90;99.90
33093;DHT22;19456;46.104;12.908;2024-03-02T04:43:10;9.80;99.90
33093;DHT22;19456;46.104;12.908;2024-03-02T04:45:38;9.80;99.90
33093;DHT22;19456;46.104;12.908;2024-03-02T04:48:04;9.80;99.90
33093;DHT22;19456;46.104;12.908;2024-03-02T04:50:30;9.80;99.90
33093;DHT22;19456;46.104;12.908;2024-03-02T04:52:55;9.60;99.90
33093;DHT22;19456;46.104;12.908;2024-03-02T04:55:21;9.60;99.90
33093;DHT22;19456;46.104;12.908;2024-03-02T04:57:52;9.50;99.90
33093;DHT22;19456;46.104;12.908;2024-03-02T05:00:20;9.50;99.90
33093;DHT22;19456;46.104;12.908;2024-03-02T05:02:46;9.50;99.90
33093;DHT22;19456;46.104;12.908;2024-03-02T05:05:11;9.40;99.90
33093;DHT22;19456;46.104;12.908;2024-03-02T05:07:37;9.40;99.90
33093;DHT22;19456;46.104;12.908;2024-03-02T05:10:02;9.40;99.90
33093;DHT22;19456;46.104;12.908;2024-03-02T05:12:28;9.40;99.90
33093;DHT22;19456;46.104;12.908;2024-03-02T05:15:09;9.50;99.90
33093;DHT22;19456;46.104;12.908;2024-03-02T05:17:35;9.50;99.90
33093;DHT22;19456;46.104;12.908;2024-03-02T05:20:01;9.50;99.90
33093;DHT22;19456;46.104;12.908;2024-03-02T05:22:27;9.50;99.90
33093;DHT22;19456;46.104;12.908;2024-03-02T05:24:52;9.60;99.90
33093;DHT22;19456;46.104;12.908;2024-03-02T05:27:18;9.70;99.90
33093;DHT22;19456;46.104;12.908;2024-03-02T05:29:43;9.70;99.90
33093;DHT22;19456;46.104;12.908;2024-03-02T05:32:09;9.70;99.90
33093;DHT22;19456;46.104;12.908;2024-03-02T05:34:34;9.70;99.90
33093;DHT22;19456;46.104;12.908;2024-03-02T05:37:01;9.70;99.90
33093;DHT22;19456;46.104;12.908;2024-03-02T05:39:26;9.80;99.90
33093;DHT22;19456;46.104;12.908;2024-03-02T05:41:52;9.80;99.90
33093;DHT22;19456;46.104;12.908;2024-03-02T05:44:17;9.90;99.90
33093;DHT22;19456;46.104;12.908;2024-03-02T05:46:44;9.90;99.90
33093;DHT22;19456;46.104;12.908;2024-03-02T05:49:09;9.90;99.90
33093;DHT22;19456;46.104;12.908;2024-03-02T05:51:35;10.00;99.90
33093;DHT22;19456;46.104;12.908;2024-03-02T05:54:01;10.00;99.90
33093;DHT22;19456;46.104;12.908;2024-03-02T05:56:26;10.10;99.90
33093;DHT22;19456;46.104;12.908;2024-03-02T05:58:52;10.20;99.90
33093;DHT22;19456;46.104;12.908;2024-03-02T06:01:33;10.30;99.90
33093;DHT22;19456;46.104;12.908;2024-03-02T06:03:58;10.30;99.90
33093;DHT22;19456;46.104;12.908;2024-03-02T06:06:24;10.30;99.90
33093;DHT22;19456;46.104;12.908;2024-03-02T06:08:50;10.30;99.90
33093;DHT22;19456;46.104;12.908;2024-03-02T06:11:16;10.40;99.90
33093;DHT22;19456;46.104;12.908;2024-03-02T06:13:41;10.40;99.90
33093;DHT22;19456;46.104;12.908;2024-03-02T06:16:07;10.40;99.90
33093;DHT22;19456;46.104;12.908;2024-03-02T06:18:33;10.40;99.90
33093;DHT22;19456;46.104;12.908;2024-03-02T06:21:02;10.40;99.90
33093;DHT22;19456;46.104;12.908;2024-03-02T06:23:28;10.50;99.90
33093;DHT22;19456;46.104;12.908;2024-03-02T06:25:54;10.50;99.90
33093;DHT22;19456;46.104;12.908;2024-03-02T06:28:19;10.60;99.90
33093;DHT22;19456;46.104;12.908;2024-03-02T06:30:46;10.50;99.90
33093;DHT22;19456;46.104;12.908;2024-03-02T06:33:11;10.30;99.90
33093;DHT22;19456;46.104;12.908;2024-03-02T06:35:37;10.20;99.90
33093;DHT22;19456;46.104;12.908;2024-03-02T06:38:03;10.10;99.90
33093;DHT22;19456;46.104;12.908;2024-03-02T06:40:28;9.90;99.90
33093;DHT22;19456;46.104;12.908;2024-03-02T06:42:54;9.90;99.90
33093;DHT22;19456;46.104;12.908;2024-03-02T06:45:19;9.90;99.90
33093;DHT22;19456;46.104;12.908;2024-03-02T06:47:45;9.90;99.90
33093;DHT22;19456;46.104;12.908;2024-03-02T06:50:11;9.90;99.90
33093;DHT22;19456;46.104;12.908;2024-03-02T06:52:36;9.90;99.90
33093;DHT22;19456;46.104;12.908;2024-03-02T06:55:02;9.90;99.90
33093;DHT22;19456;46.104;12.908;2024-03-02T06:57:29;9.90;99.90
33093;DHT22;19456;46.104;12.908;2024-03-02T06:59:55;10.00;99.90
33093;DHT22;19456;46.104;12.908;2024-03-02T07:02:25;10.00;99.90
33093;DHT22;19456;46.104;12.908;2024-03-02T07:04:52;10.10;99.90
33093;DHT22;19456;46.104;12.908;2024-03-02T07:07:20;10.10;99.90
33093;DHT22;19456;46.104;12.908;2024-03-02T07:09:55;10.20;99.90
33093;DHT22;19456;46.104;12.908;2024-03-02T07:12:23;10.20;99.90
33093;DHT22;19456;46.104;12.908;2024-03-02T07:14:51;10.20;99.90
33093;DHT22;19456;46.104;12.908;2024-03-02T07:17:30;10.20;99.90
33093;DHT22;19456;46.104;12.908;2024-03-02T07:19:56;10.20;99.90
33093;DHT22;19456;46.104;12.908;2024-03-02T07:22:22;10.20;99.90
33093;DHT22;19456;46.104;12.908;2024-03-02T07:24:48;10.20;99.90
33093;DHT22;19456;46.104;12.908;2024-03-02T07:27:14;10.30;99.90
33093;DHT22;19456;46.104;12.908;2024-03-02T07:29:40;10.30;99.90
33093;DHT22;19456;46.104;12.908;2024-03-02T07:32:06;10.40;99.90
33093;DHT22;19456;46.104;12.908;2024-03-02T07:34:32;10.50;99.90
33093;DHT22;19456;46.104;12.908;2024-03-02T07:36:57;10.60;99.90
33093;DHT22;19456;46.104;12.908;2024-03-02T07:39:23;10.60;99.90
33093;DHT22;19456;46.104;12.908;2024-03-02T07:41:49;10.60;99.90
33093;DHT22;19456;46.104;12.908;2024-03-02T07:44:14;10.70;99.90
33093;DHT22;19456;46.104;12.908;2024-03-02T07:46:43;10.60;99.90
33093;DHT22;19456;46.104;12.908;2024-03-02T07:49:09;10.60;99.90
33093;DHT22;19456;46.104;12.908;2024-03-02T07:51:35;10.60;99.90
33093;DHT22;19456;46.104;12.908;2024-03-02T07:54:00;10.80;99.90
33093;DHT22;19456;46.104;12.908;2024-03-02T07:56:26;10.80;99.90
33093;DHT22;19456;46.104;12.908;2024-03-02T07:58:53;10.80;99.90
33093;DHT22;19456;46.104;12.908;2024-03-02T08:01:19;10.70;99.90
33093;DHT22;19456;46.104;12.908;2024-03-02T08:03:44;10.80;99.90
33093;DHT22;19456;46.104;12.908;2024-03-02T08:06:15;10.80;99.90
33093;DHT22;19456;46.104;12.908;2024-03-02T08:08:41;10.80;99.90
33093;DHT22;19456;46.104;12.908;2024-03-02T08:11:07;10.80;99.90
33093;DHT22;19456;46.104;12.908;2024-03-02T08:13:32;10.90;99.90
33093;DHT22;19456;46.104;12.908;2024-03-02T08:15:58;10.90;99.90
33093;DHT22;19456;46.104;12.908;2024-03-02T08:18:24;10.90;99.90
33093;DHT22;19456;46.104;12.908;2024-03-02T08:20:49;10.90;99.90
33093;DHT22;19456;46.104;12.908;2024-03-02T08:23:15;10.90;99.90
33093;DHT22;19456;46.104;12.908;2024-03-02T08:25:41;10.90;99.90
33093;DHT22;19456;46.104;12.908;2024-03-02T08:28:07;11.00;99.90
33093;DHT22;19456;46.104;12.908;2024-03-02T08:30:33;11.10;99.90
33093;DHT22;19456;46.104;12.908;2024-03-02T08:32:59;11.20;99.90
33093;DHT22;19456;46.104;12.908;2024-03-02T08:35:25;11.30;99.90
33093;DHT22;19456;46.104;12.908;2024-03-02T08:37:51;11.40;99.90
33093;DHT22;19456;46.104;12.908;2024-03-02T08:40:18;11.40;99.90
33093;DHT22;19456;46.104;12.908;2024-03-02T08:42:46;11.50;99.90
33093;DHT22;19456;46.104;12.908;2024-03-02T08:45:12;11.60;99.90
33093;DHT22;19456;46.104;12.908;2024-03-02T08:47:38;11.60;99.90
33093;DHT22;19456;46.104;12.908;2024-03-02T08:50:04;11.70;99.90
33093;DHT22;19456;46.104;12.908;2024-03-02T08:52:31;11.80;99.90
33093;DHT22;19456;46.104;12.908;2024-03-02T08:54:57;11.80;99.90
33093;DHT22;19456;46.104;12.908;2024-03-02T08:57:22;11.80;99.90
33093;DHT22;19456;46.104;12.908;2024-03-02T08:59:48;11.90;99.90
33093;DHT22;19456;46.104;12.908;2024-03-02T09:02:14;11.90;99.90
33093;DHT22;19456;46.104;12.908;2024-03-02T09:04:40;12.00;99.90
33093;DHT22;19456;46.104;12.908;2024-03-02T09:07:05;12.10;99.90
33093;DHT22;19456;46.104;12.908;2024-03-02T09:09:32;12.20;99.90
33093;DHT22;19456;46.104;12.908;2024-03-02T09:11:57;12.30;99.90
33093;DHT22;19456;46.104;12.908;2024-03-02T09:14:23;12.30;99.90
33093;DHT22;19456;46.104;12.908;2024-03-02T09:16:49;12.20;99.90
33093;DHT22;19456;46.104;12.908;2024-03-02T09:19:15;12.30;99.90
33093;DHT22;19456;46.104;12.908;2024-03-02T09:21:42;12.30;99.90
33093;DHT22;19456;46.104;12.908;2024-03-02T09:24:07;12.30;99.90
33093;DHT22;19456;46.104;12.908;2024-03-02T09:26:33;12.30;99.90
33093;DHT22;19456;46.104;12.908;2024-03-02T09:28:58;12.30;99.90
33093;DHT22;19456;46.104;12.908;2024-03-02T09:31:24;12.30;99.90
33093;DHT22;19456;46.104;12.908;2024-03-02T09:33:49;12.40;99.90
33093;DHT22;19456;46.104;12.908;2024-03-02T09:36:18;12.40;99.90
33093;DHT22;19456;46.104;12.908;2024-03-02T09:38:44;12.50;99.90
33093;DHT22;19456;46.104;12.908;2024-03-02T09:41:10;12.60;99.90
33093;DHT22;19456;46.104;12.908;2024-03-02T09:43:36;12.60;99.90
33093;DHT22;19456;46.104;12.908;2024-03-02T09:46:01;12.50;99.90
33093;DHT22;19456;46.104;12.908;2024-03-02T09:48:27;12.40;99.90
33093;DHT22;19456;46.104;12.908;2024-03-02T09:50:52;12.50;99.90
33093;DHT22;19456;46.104;12.908;2024-03-02T09:53:18;12.50;99.90
33093;DHT22;19456;46.104;12.908;2024-03-02T09:55:47;12.50;99.90
33093;DHT22;19456;46.104;12.908;2024-03-02T09:58:12;12.50;99.90
33093;DHT22;19456;46.104;12.908;2024-03-02T10:00:39;12.50;99.90
33093;DHT22;19456;46.104;12.908;2024-03-02T10:03:05;12.50;99.90
33093;DHT22;19456;46.104;12.908;2024-03-02T10:05:30;12.50;99.90
33093;DHT22;19456;46.104;12.908;2024-03-02T10:08:00;12.50;99.90
33093;DHT22;19456;46.104;12.908;2024-03-02T10:10:33;12.50;99.90
33093;DHT22;19456;46.104;12.908;2024-03-02T10:13:03;12.50;99.90
33093;DHT22;19456;46.104;12.908;2024-03-02T10:15:30;12.50;99.90
33093;DHT22;19456;46.104;12.908;2024-03-02T10:17:55;12.60;99.90
33093;DHT22;19456;46.104;12.908;2024-03-02T10:20:22;12.60;99.90
33093;DHT22;19456;46.104;12.908;2024-03-02T10:22:48;12.60;99.90
33093;DHT22;19456;46.104;12.908;2024-03-02T10:25:30;12.40;99.90
33093;DHT22;19456;46.104;12.908;2024-03-02T10:28:00;12.50;99.90
33093;DHT22;19456;46.104;12.908;2024-03-02T10:30:29;12.50;99.90
33093;DHT22;19456;46.104;12.908;2024-03-02T10:32:55;12.60;99.90
33093;DHT22;19456;46.104;12.908;2024-03-02T10:35:24;12.40;99.90
33093;DHT22;19456;46.104;12.908;2024-03-02T10:37:51;12.50;99.90
33093;DHT22;19456;46.104;12.908;2024-03-02T10:40:17;12.50;99.90
33093;DHT22;19456;46.104;12.908;2024-03-02T10:42:43;12.50;99.90
33093;DHT22;19456;46.104;12.908;2024-03-02T10:45:10;12.50;99.90
33093;DHT22;19456;46.104;12.908;2024-03-02T10:47:38;12.60;99.90
33093;DHT22;19456;46.104;12.908;2024-03-02T10:50:06;12.60;99.90
33093;DHT22;19456;46.104;12.908;2024-03-02T10:52:36;12.70;99.90
33093;DHT22;19456;46.104;12.908;2024-03-02T10:55:03;12.70;99.90
33093;DHT22;19456;46.104;12.908;2024-03-02T11:00:19;12.90;99.90
33093;DHT22;19456;46.104;12.908;2024-03-02T11:02:51;12.90;99.90
33093;DHT22;19456;46.104;12.908;2024-03-02T11:05:27;13.00;99.90
33093;DHT22;19456;46.104;12.908;2024-03-02T11:08:02;13.20;99.90
33093;DHT22;19456;46.104;12.908;2024-03-02T11:10:34;13.50;99.90
33093;DHT22;19456;46.104;12.908;2024-03-02T11:13:01;13.70;99.90
33093;DHT22;19456;46.104;12.908;2024-03-02T11:15:27;13.90;99.90
33093;DHT22;19456;46.104;12.908;2024-03-02T11:17:54;14.10;99.90
33093;DHT22;19456;46.104;12.908;2024-03-02T11:20:20;14.30;99.90
33093;DHT22;19456;46.104;12.908;2024-03-02T11:22:46;14.50;99.90
33093;DHT22;19456;46.104;12.908;2024-03-02T11:25:25;14.60;99.90
33093;DHT22;19456;46.104;12.908;2024-03-02T11:33:00;15.20;99.90
33093;DHT22;19456;46.104;12.908;2024-03-02T11:35:26;15.20;99.90
33093;DHT22;19456;46.104;12.908;2024-03-02T11:37:52;15.10;99.90
33093;DHT22;19456;46.104;12.908;2024-03-02T11:40:28;15.00;99.90
33093;DHT22;19456;46.104;12.908;2024-03-02T11:43:38;14.90;99.90
33093;DHT22;19456;46.104;12.908;2024-03-02T11:46:07;14.90;99.90
33093;DHT22;19456;46.104;12.908;2024-03-02T11:48:33;14.70;99.90
33093;DHT22;19456;46.104;12.908;2024-03-02T11:51:00;14.50;99.90
33093;DHT22;19456;46.104;12.908;2024-03-02T11:53:26;14.20;99.90
33093;DHT22;19456;46.104;12.908;2024-03-02T11:55:55;14.20;99.90
33093;DHT22;19456;46.104;12.908;2024-03-02T11:58:21;14.30;99.90
33093;DHT22;19456;46.104;12.908;2024-03-02T12:00:54;14.20;99.90
33093;DHT22;19456;46.104;12.908;2024-03-02T12:03:21;14.20;99.90
33093;DHT22;19456;46.104;12.908;2024-03-02T12:05:49;14.10;99.90
33093;DHT22;19456;46.104;12.908;2024-03-02T12:08:15;14.20;99.90
33093;DHT22;19456;46.104;12.908;2024-03-02T12:10:40;14.10;99.90
33093;DHT22;19456;46.104;12.908;2024-03-02T12:13:06;14.00;99.90
33093;DHT22;19456;46.104;12.908;2024-03-02T12:15:33;13.90;99.90
33093;DHT22;19456;46.104;12.908;2024-03-02T12:17:59;13.80;99.90
33093;DHT22;19456;46.104;12.908;2024-03-02T12:20:26;13.70;99.90
33093;DHT22;19456;46.104;12.908;2024-03-02T12:22:52;13.80;99.90
33093;DHT22;19456;46.104;12.908;2024-03-02T12:25:21;13.80;99.90
33093;DHT22;19456;46.104;12.908;2024-03-02T12:27:49;13.80;99.90
33093;DHT22;19456;46.104;12.908;2024-03-02T12:30:15;13.80;99.90
33093;DHT22;19456;46.104;12.908;2024-03-02T12:32:41;13.70;99.90
33093;DHT22;19456;46.104;12.908;2024-03-02T12:35:07;13.70;99.90
33093;DHT22;19456;46.104;12.908;2024-03-02T12:37:32;13.60;99.90
33093;DHT22;19456;46.104;12.908;2024-03-02T12:39:59;13.50;99.90
33093;DHT22;19456;46.104;12.908;2024-03-02T12:42:24;13.40;99.90
33093;DHT22;19456;46.104;12.908;2024-03-02T12:44:53;13.40;99.90
33093;DHT22;19456;46.104;12.908;2024-03-02T12:47:20;13.40;99.90
33093;DHT22;19456;46.104;12.908;2024-03-02T12:49:45;13.30;99.90
33093;DHT22;19456;46.104;12.908;2024-03-02T12:52:12;13.30;99.90
33093;DHT22;19456;46.104;12.908;2024-03-02T12:54:38;13.30;99.90
33093;DHT22;19456;46.104;12.908;2024-03-02T12:57:03;13.30;99.90
33093;DHT22;19456;46.104;12.908;2024-03-02T12:59:29;13.40;99.90
33093;DHT22;19456;46.104;12.908;2024-03-02T13:01:55;13.70;99.90
33093;DHT22;19456;46.104;12.908;2024-03-02T13:04:27;13.90;99.90
33093;DHT22;19456;46.104;12.908;2024-03-02T13:06:56;14.10;99.90
33093;DHT22;19456;46.104;12.908;2024-03-02T13:09:25;14.50;99.90
33093;DHT22;19456;46.104;12.908;2024-03-02T13:11:50;15.10;99.90
33093;DHT22;19456;46.104;12.908;2024-03-02T13:14:16;16.20;99.90
33093;DHT22;19456;46.104;12.908;2024-03-02T13:16:42;16.90;99.90
33093;DHT22;19456;46.104;12.908;2024-03-02T13:19:08;16.80;99.90
33093;DHT22;19456;46.104;12.908;2024-03-02T13:21:36;16.80;99.90
33093;DHT22;19456;46.104;12.908;2024-03-02T13:24:02;17.10;99.90
33093;DHT22;19456;46.104;12.908;2024-03-02T13:26:28;17.10;99.90
33093;DHT22;19456;46.104;12.908;2024-03-02T13:28:54;17.40;99.90
33093;DHT22;19456;46.104;12.908;2024-03-02T13:31:19;17.70;99.90
33093;DHT22;19456;46.104;12.908;2024-03-02T13:33:46;17.90;99.90
33093;DHT22;19456;46.104;12.908;2024-03-02T13:36:12;17.50;99.90
33093;DHT22;19456;46.104;12.908;2024-03-02T13:38:40;17.10;99.90
33093;DHT22;19456;46.104;12.908;2024-03-02T13:41:06;16.60;99.90
33093;DHT22;19456;46.104;12.908;2024-03-02T13:43:32;16.10;99.90
33093;DHT22;19456;46.104;12.908;2024-03-02T13:45:58;15.70;99.90
33093;DHT22;19456;46.104;12.908;2024-03-02T13:48:31;15.40;99.90
33093;DHT22;19456;46.104;12.908;2024-03-02T13:51:00;15.20;99.90
33093;DHT22;19456;46.104;12.908;2024-03-02T13:53:28;14.80;99.90
33093;DHT22;19456;46.104;12.908;2024-03-02T13:55:54;14.70;99.90
33093;DHT22;19456;46.104;12.908;2024-03-02T13:58:20;14.60;99.90
33093;DHT22;19456;46.104;12.908;2024-03-02T14:00:49;14.40;99.90
33093;DHT22;19456;46.104;12.908;2024-03-02T14:03:17;14.10;99.90
33093;DHT22;19456;46.104;12.908;2024-03-02T14:05:48;14.00;99.90
33093;DHT22;19456;46.104;12.908;2024-03-02T14:08:25;13.80;99.90
33093;DHT22;19456;46.104;12.908;2024-03-02T14:10:51;13.70;99.90
33093;DHT22;19456;46.104;12.908;2024-03-02T14:13:20;13.60;99.90
33093;DHT22;19456;46.104;12.908;2024-03-02T14:15:51;13.50;99.90
33093;DHT22;19456;46.104;12.908;2024-03-02T14:18:21;13.50;99.90
33093;DHT22;19456;46.104;12.908;2024-03-02T14:20:47;13.50;99.90
33093;DHT22;19456;46.104;12.908;2024-03-02T14:23:20;13.60;99.90
33093;DHT22;19456;46.104;12.908;2024-03-02T14:25:48;13.50;99.90
33093;DHT22;19456;46.104;12.908;2024-03-02T14:28:16;13.40;99.90
33093;DHT22;19456;46.104;12.908;2024-03-02T14:30:46;13.20;99.90
33093;DHT22;19456;46.104;12.908;2024-03-02T14:33:11;13.10;99.90
33093;DHT22;19456;46.104;12.908;2024-03-02T14:35:39;13.00;99.90
33093;DHT22;19456;46.104;12.908;2024-03-02T14:38:07;13.10;99.90
33093;DHT22;19456;46.104;12.908;2024-03-02T14:40:36;13.20;99.90
33093;DHT22;19456;46.104;12.908;2024-03-02T14:43:04;13.30;99.90
33093;DHT22;19456;46.104;12.908;2024-03-02T14:45:32;13.30;99.90
33093;DHT22;19456;46.104;12.908;2024-03-02T14:47:58;13.20;99.90
33093;DHT22;19456;46.104;12.908;2024-03-02T14:50:27;13.30;99.90
33093;DHT22;19456;46.104;12.908;2024-03-02T14:52:53;13.20;99.90
33093;DHT22;19456;46.104;12.908;2024-03-02T14:55:24;13.30;99.90
33093;DHT22;19456;46.104;12.908;2024-03-02T14:57:52;13.40;99.90
33093;DHT22;19456;46.104;12.908;2024-03-02T15:00:20;13.40;99.90
33093;DHT22;19456;46.104;12.908;2024-03-02T15:02:49;13.60;99.90
33093;DHT22;19456;46.104;12.908;2024-03-02T15:05:17;13.70;99.90
33093;DHT22;19456;46.104;12.908;2024-03-02T15:07:48;13.70;99.90
33093;DHT22;19456;46.104;12.908;2024-03-02T15:10:26;13.70;99.90
33093;DHT22;19456;46.104;12.908;2024-03-02T15:12:57;13.90;99.90
33093;DHT22;19456;46.104;12.908;2024-03-02T15:15:34;13.80;99.90
33093;DHT22;19456;46.104;12.908;2024-03-02T15:17:59;13.70;99.90
33093;DHT22;19456;46.104;12.908;2024-03-02T15:20:29;13.70;99.90
33093;DHT22;19456;46.104;12.908;2024-03-02T15:23:01;13.70;99.90
33093;DHT22;19456;46.104;12.908;2024-03-02T15:25:32;13.70;99.90
33093;DHT22;19456;46.104;12.908;2024-03-02T15:28:02;13.60;99.90
33093;DHT22;19456;46.104;12.908;2024-03-02T15:30:31;13.40;99.90
33093;DHT22;19456;46.104;12.908;2024-03-02T15:33:00;13.30;99.90